Harrisonburg, VA

2:11 PM EDT on October 01, 2016 (GMT -0400)
Urban Exchange | | Change Station

Elev 1341 ft 38.45 °N, 78.87 °W | Updated 7 minutes ago

Overcast
Overcast
63.1 °F
Feels Like 63.1 °F
N
0.6
Wind Variable Wind from NNE
Gusts 1.9 mph

Today
High -- | Low -- °F
--% Chance of Precip.
Yesterday
High -- | Low -- °F
Precip. -- in
Pressure 30.12 in
Visibility 10.0 miles
Clouds Mostly Cloudy 1000 ft
Overcast 1700 ft
Dew Point 63 °F
Humidity 99%
Rainfall 0.01 in
Snow Depth Not available.
7:11 AM 6:57 PM
New Moon, 1% visible
METAR KSHD 011755Z AUTO 33003KT 10SM BKN010 OVC017 18/16 A3012 RMK AO2 T01800157 10182 20144
Pressure 30.12 in
Visibility 10.0 miles
Clouds Mostly Cloudy 1000 ft
Overcast 1700 ft
Dew Point 63 °F
Humidity 99%
Rainfall 0.01 in
Snow Depth Not available.
7:11 AM 6:57 PM
New Moon, 1% visible
METAR KSHD 011755Z AUTO 33003KT 10SM BKN010 OVC017 18/16 A3012 RMK AO2 T01800157 10182 20144

10-Day Weather Forecast

Almanac

Astronomy

Oct. 01, 2016 Rise Set
Actual Time
Civil Twilight
Nautical Twilight
Astronomical Twilight
Moon
Length of Visible Light
Length of Day
Tomorrow will be .
, % of the Moon is Illuminated

Today's Extremes

State Highs State Lows

Community

WunderPhotos

Upload Photos

1,942,981 photos uploaded!

WunderBlog® & News

Nearby

Air Quality

  Air Quality AQ Index Pollutant
Not available.

Snow Depth

Station Depth Elevation

Earthquake Activity

City Distance Mag. Time & Date
Minimum magnitude displayed is 2.5.

Coastal Water Temperatures

Place Temperature

Stations

Nearby Weather Stations

Station Location Temp. Windchill Dew Point Humidity Wind Precip. Elev Updated Type
                   

Watches & Warnings

There are currently no watches in effect.